createdAt,value
2022-11-12T00:00:02.377Z,100828.00
2022-11-12T00:01:24.881Z,100831.63
2022-11-12T00:02:28.446Z,100830.94
2022-11-12T00:03:35.299Z,100831.84
2022-11-12T00:04:47.624Z,100833.63
2022-11-12T00:05:53.475Z,100837.22
2022-11-12T00:06:58.227Z,100837.47
2022-11-12T00:08:11.094Z,100832.47
2022-11-12T00:09:18.974Z,100831.59
2022-11-12T00:10:23.854Z,100822.19
2022-11-12T00:11:27.368Z,100831.00
2022-11-12T00:12:31.837Z,100826.47
2022-11-12T00:14:07.787Z,100832.66
2022-11-12T00:15:13.067Z,100822.97
2022-11-12T00:16:18.048Z,100826.56
2022-11-12T00:17:22.008Z,100822.19
2022-11-12T00:18:26.609Z,100827.50
2022-11-12T00:19:30.978Z,100826.63
2022-11-12T00:20:36.336Z,100818.66
2022-11-12T00:21:41.871Z,100823.16
2022-11-12T00:22:48.914Z,100822.38
2022-11-12T00:23:52.862Z,100825.94
2022-11-12T00:24:56.486Z,100823.41
2022-11-12T00:26:02.448Z,100821.69
2022-11-12T00:27:06.346Z,100827.06
2022-11-12T00:28:12.148Z,100816.44
2022-11-12T00:29:19.856Z,100813.97
2022-11-12T00:30:26.529Z,100821.16
2022-11-12T00:31:30.076Z,100821.16
2022-11-12T00:32:37.783Z,100826.53
2022-11-12T00:33:43.696Z,100821.31
2022-11-12T00:34:47.879Z,100820.41
2022-11-12T00:35:52.219Z,100818.66
2022-11-12T00:36:56.362Z,100822.31
2022-11-12T00:38:01.207Z,100813.63
2022-11-12T00:39:05.267Z,100826.03
2022-11-12T00:40:10.035Z,100823.44
2022-11-12T00:41:13.543Z,100832.38
2022-11-12T00:42:18.941Z,100831.59
2022-11-12T00:43:29.871Z,100830.66
2022-11-12T00:44:33.446Z,100834.25
2022-11-12T00:45:38.762Z,100834.34
2022-11-12T00:47:02.423Z,100827.34
2022-11-12T00:48:16.078Z,100826.63
2022-11-12T00:49:20.270Z,100830.19
2022-11-12T00:50:25.258Z,100829.38
2022-11-12T00:51:42.134Z,100830.38
2022-11-12T00:52:51.538Z,100833.22
2022-11-12T00:53:56.339Z,100829.84
2022-11-12T00:55:00.562Z,100832.59
2022-11-12T00:56:07.804Z,100827.44
2022-11-12T00:57:13.175Z,100825.69
2022-11-12T00:58:18.659Z,100839.88
2022-11-12T00:59:25.474Z,100819.59
2022-11-12T01:00:32.614Z,100834.63
2022-11-12T01:01:38.735Z,100831.25
2022-11-12T01:02:51.484Z,100829.47
2022-11-12T01:03:57.953Z,100832.03
2022-11-12T01:05:03.364Z,100839.13
2022-11-12T01:06:19.243Z,100834.69
2022-11-12T01:07:31.477Z,100834.75
2022-11-12T01:08:51.879Z,100843.72
2022-11-12T01:09:56.716Z,100842.78
2022-11-12T01:11:21.354Z,100838.41
2022-11-12T01:12:26.318Z,100834.03
2022-11-12T01:13:30.547Z,100834.91
2022-11-12T01:14:36.168Z,100833.13
2022-11-12T01:15:43.216Z,100838.50
2022-11-12T01:16:48.590Z,100832.28
2022-11-12T01:19:28.766Z,100840.31
2022-11-12T01:20:45.503Z,100843.88
2022-11-12T01:21:49.614Z,100842.16
2022-11-12T01:22:53.495Z,100829.78
2022-11-12T01:24:04.768Z,100833.22
2022-11-12T01:25:08.851Z,100840.31
2022-11-12T01:26:20.774Z,100834.94
2022-11-12T01:27:24.527Z,100838.44
2022-11-12T01:28:29.701Z,100838.50
2022-11-12T01:29:33.525Z,100833.28
2022-11-12T01:30:37.893Z,100835.13
2022-11-12T01:32:00.237Z,100837.91
2022-11-12T01:33:03.930Z,100839.75
2022-11-12T01:34:16.813Z,100840.69
2022-11-12T01:35:20.646Z,100844.31
2022-11-12T01:36:26.019Z,100838.97
2022-11-12T01:37:30.029Z,100840.78
2022-11-12T01:38:40.776Z,100839.13
2022-11-12T01:39:48.771Z,100839.19
2022-11-12T01:40:53.018Z,100835.84
2022-11-12T01:41:57.125Z,100840.22
2022-11-12T01:43:01.227Z,100835.97
2022-11-12T01:44:17.265Z,100838.69
2022-11-12T01:45:22.167Z,100842.22
2022-11-12T01:46:30.435Z,100843.94
2022-11-12T01:47:36.063Z,100839.56
2022-11-12T01:48:52.649Z,100837.00
2022-11-12T01:50:26.402Z,100836.16
2022-11-12T01:51:40.322Z,100838.00
2022-11-12T01:53:13.709Z,100841.59
2022-11-12T01:54:22.121Z,100832.88
2022-11-12T01:55:38.555Z,100833.81
2022-11-12T01:56:42.871Z,100832.06
2022-11-12T01:57:58.838Z,100840.03
2022-11-12T01:59:28.028Z,100836.44
2022-11-12T02:00:36.211Z,100833.09
2022-11-12T02:01:49.702Z,100836.50
2022-11-12T02:03:02.373Z,100837.44
2022-11-12T02:04:06.886Z,100836.59
2022-11-12T02:05:13.141Z,100833.06
2022-11-12T02:06:19.550Z,100837.44
2022-11-12T02:07:31.981Z,100845.38
2022-11-12T02:08:39.593Z,100836.63
2022-11-12T02:09:43.087Z,100840.16
2022-11-12T02:10:46.874Z,100840.09
2022-11-12T02:11:50.496Z,100842.75
2022-11-12T02:13:13.893Z,100840.09
2022-11-12T02:14:17.592Z,100835.75
2022-11-12T02:15:21.336Z,100836.75
2022-11-12T02:16:44.686Z,100839.41
2022-11-12T02:17:48.273Z,100841.25
2022-11-12T02:18:51.869Z,100836.81
2022-11-12T02:20:03.738Z,100834.09
2022-11-12T02:21:09.808Z,100835.09
2022-11-12T02:22:13.924Z,100844.81
2022-11-12T02:23:19.826Z,100844.81
2022-11-12T02:24:23.587Z,100841.25
2022-11-12T02:25:29.527Z,100835.09
2022-11-12T02:26:42.132Z,100837.66
2022-11-12T02:27:51.943Z,100839.47
2022-11-12T02:28:55.807Z,100834.22
2022-11-12T02:29:59.411Z,100839.56
2022-11-12T02:31:05.156Z,100839.69
2022-11-12T02:32:09.263Z,100836.97
2022-11-12T02:33:13.265Z,100837.84
2022-11-12T02:34:17.066Z,100840.53
2022-11-12T02:35:20.755Z,100836.19
2022-11-12T02:36:25.773Z,100831.75
2022-11-12T02:37:29.273Z,100831.91
2022-11-12T02:38:33.226Z,100829.22
2022-11-12T02:39:45.456Z,100834.56
2022-11-12T02:40:55.249Z,100832.88
2022-11-12T02:42:12.526Z,100833.88
2022-11-12T02:43:16.488Z,100835.59
2022-11-12T02:44:20.598Z,100829.44
2022-11-12T02:45:24.977Z,100832.09
2022-11-12T02:46:34.910Z,100825.97
2022-11-12T02:47:43.182Z,100832.16
2022-11-12T02:48:49.669Z,100834.81
2022-11-12T02:49:53.490Z,100833.97
2022-11-12T02:50:57.131Z,100833.19
2022-11-12T02:52:01.183Z,100830.47
2022-11-12T02:53:05.538Z,100826.03
2022-11-12T02:54:09.900Z,100834.91
2022-11-12T02:55:14.440Z,100829.53
2022-11-12T02:56:18.450Z,100830.59
2022-11-12T02:57:23.228Z,100833.19
2022-11-12T02:58:28.928Z,100828.81
2022-11-12T02:59:36.994Z,100833.25
2022-11-12T03:00:50.918Z,100827.88
2022-11-12T03:02:07.123Z,100830.53
2022-11-12T03:03:12.527Z,100833.19
2022-11-12T03:04:19.827Z,100824.31
2022-11-12T03:05:35.194Z,100831.47
2022-11-12T03:06:47.145Z,100827.94
2022-11-12T03:07:51.255Z,100833.41
2022-11-12T03:08:58.116Z,100826.31
2022-11-12T03:10:02.976Z,100829.03
2022-11-12T03:11:14.506Z,100827.53
2022-11-12T03:12:27.313Z,100827.75
2022-11-12T03:13:31.426Z,100830.63
2022-11-12T03:14:36.695Z,100829.81
2022-11-12T03:15:41.156Z,100819.16
2022-11-12T03:16:47.665Z,100829.69
2022-11-12T03:17:51.923Z,100822.72
2022-11-12T03:18:58.991Z,100826.44
2022-11-12T03:20:07.841Z,100833.47
2022-11-12T03:21:15.136Z,100833.44
2022-11-12T03:22:22.649Z,100831.66
2022-11-12T03:23:29.344Z,100830.75
2022-11-12T03:24:32.921Z,100838.63
2022-11-12T03:25:37.631Z,100834.19
2022-11-12T03:26:41.261Z,100841.22
2022-11-12T03:27:45.057Z,100835.88
2022-11-12T03:28:50.976Z,100828.88
2022-11-12T03:29:54.610Z,100831.47
2022-11-12T03:31:00.882Z,100829.69
2022-11-12T03:32:04.983Z,100824.44
2022-11-12T03:33:12.048Z,100832.34
2022-11-12T03:34:16.979Z,100841.22
2022-11-12T03:35:24.961Z,100828.94
2022-11-12T03:36:28.868Z,100834.25
2022-11-12T03:37:33.589Z,100830.75
2022-11-12T03:38:37.637Z,100835.09
2022-11-12T03:39:45.321Z,100840.47
2022-11-12T03:40:49.844Z,100839.66
2022-11-12T03:41:53.423Z,100834.31
2022-11-12T03:42:57.337Z,100829.97
2022-11-12T03:44:07.366Z,100830.03
2022-11-12T03:45:15.247Z,100826.53
2022-11-12T03:46:19.209Z,100830.09
2022-11-12T03:47:52.245Z,100832.69
2022-11-12T03:48:55.821Z,100835.44
2022-11-12T03:49:59.583Z,100832.75
2022-11-12T03:51:03.462Z,100831.00
2022-11-12T03:52:06.975Z,100827.50
2022-11-12T03:53:11.774Z,100827.44
2022-11-12T03:54:15.711Z,100825.78
2022-11-12T03:55:22.785Z,100825.78
2022-11-12T03:56:27.628Z,100829.28
2022-11-12T03:57:32.439Z,100826.66
2022-11-12T03:58:57.438Z,100826.66
2022-11-12T04:00:15.237Z,100830.25
2022-11-12T04:01:21.946Z,100825.06
2022-11-12T04:02:30.548Z,100827.72
2022-11-12T04:03:46.024Z,100828.66
2022-11-12T04:05:16.672Z,100829.50
2022-11-12T04:06:40.005Z,100834.03
2022-11-12T04:08:41.004Z,100830.56
2022-11-12T04:09:49.106Z,100836.84
2022-11-12T04:10:53.098Z,100830.69
2022-11-12T04:12:16.953Z,100835.00
2022-11-12T04:13:30.418Z,100832.47
2022-11-12T04:14:34.956Z,100837.00
2022-11-12T04:15:38.881Z,100838.72
2022-11-12T04:17:18.764Z,100837.06
2022-11-12T04:18:41.397Z,100838.03
2022-11-12T04:20:03.785Z,100828.47
2022-11-12T04:21:27.799Z,100833.75
2022-11-12T04:22:31.496Z,100831.16
2022-11-12T04:23:36.774Z,100832.94
2022-11-12T04:25:04.722Z,100826.75
2022-11-12T04:26:25.439Z,100829.41
2022-11-12T04:27:35.282Z,100826.78
2022-11-12T04:29:09.456Z,100832.09
2022-11-12T04:30:19.758Z,100832.09
2022-11-12T04:31:47.125Z,100832.22
2022-11-12T04:32:57.038Z,100834.09
2022-11-12T04:34:32.971Z,100831.50
2022-11-12T04:35:37.369Z,100822.75
2022-11-12T04:36:49.057Z,100826.38
2022-11-12T04:37:53.424Z,100830.84
2022-11-12T04:38:56.942Z,100827.25
2022-11-12T04:40:22.445Z,100823.03
2022-11-12T04:41:45.947Z,100823.75
2022-11-12T04:43:11.203Z,100825.81
2022-11-12T04:44:43.572Z,100831.06
2022-11-12T04:45:53.562Z,100820.50
2022-11-12T04:47:02.613Z,100824.00
2022-11-12T04:48:07.175Z,100831.00
2022-11-12T04:49:14.398Z,100820.44
2022-11-12T04:50:19.582Z,100823.06
2022-11-12T04:51:44.520Z,100834.53
2022-11-12T04:52:53.095Z,100832.94
2022-11-12T04:54:03.768Z,100828.50
2022-11-12T04:55:21.256Z,100830.22
2022-11-12T04:56:32.559Z,100832.81
2022-11-12T04:59:03.386Z,100824.88
2022-11-12T05:00:27.238Z,100831.97
2022-11-12T05:02:01.015Z,100830.22
2022-11-12T05:03:13.071Z,100830.44
2022-11-12T05:04:28.185Z,100832.34
2022-11-12T05:05:34.215Z,100839.41
2022-11-12T05:06:59.631Z,100843.72
2022-11-12T05:08:05.304Z,100837.63
2022-11-12T05:09:14.716Z,100837.56
2022-11-12T05:10:23.325Z,100832.38
2022-11-12T05:11:27.346Z,100840.31
2022-11-12T05:12:32.556Z,100829.69
2022-11-12T05:13:36.264Z,100834.00
2022-11-12T05:14:45.900Z,100831.41
2022-11-12T05:15:51.444Z,100830.59
2022-11-12T05:17:01.558Z,100816.47
2022-11-12T05:18:06.166Z,100827.31
2022-11-12T05:19:11.600Z,100833.34
2022-11-12T05:20:17.663Z,100830.69
2022-11-12T05:21:44.475Z,100823.63
2022-11-12T05:23:05.038Z,100814.81
2022-11-12T05:24:41.045Z,100828.41
2022-11-12T05:25:52.263Z,100821.34
2022-11-12T05:26:57.240Z,100826.63
2022-11-12T05:28:03.640Z,100822.25
2022-11-12T05:29:13.164Z,100831.88
2022-11-12T05:30:20.822Z,100829.22
2022-11-12T05:31:24.605Z,100832.66
2022-11-12T05:32:31.498Z,100827.44
2022-11-12T05:33:36.359Z,100830.94
2022-11-12T05:34:43.119Z,100828.34
2022-11-12T05:35:50.691Z,100826.53
2022-11-12T05:36:56.311Z,100829.94
2022-11-12T05:38:01.459Z,100837.00
2022-11-12T05:39:05.497Z,100838.88
2022-11-12T05:40:10.288Z,100832.66
2022-11-12T05:41:19.971Z,100840.56
2022-11-12T05:42:25.888Z,100836.34
2022-11-12T05:43:32.788Z,100835.47
2022-11-12T05:44:36.917Z,100838.88
2022-11-12T05:45:45.810Z,100844.16
2022-11-12T05:46:56.433Z,100840.59
2022-11-12T05:48:01.134Z,100845.09
2022-11-12T05:49:07.891Z,100832.03
2022-11-12T05:50:18.969Z,100843.50
2022-11-12T05:51:22.796Z,100844.41
2022-11-12T05:52:33.934Z,100841.81
2022-11-12T05:53:38.121Z,100851.41
2022-11-12T05:54:42.337Z,100844.34
2022-11-12T05:55:48.516Z,100846.06
2022-11-12T05:56:57.468Z,100851.34
2022-11-12T05:58:14.233Z,100850.47
2022-11-12T05:59:18.176Z,100846.97
2022-11-12T06:00:23.715Z,100853.06
2022-11-12T06:01:32.102Z,100853.06
2022-11-12T06:02:36.278Z,100854.75
2022-11-12T06:03:43.414Z,100856.53
2022-11-12T06:04:46.903Z,100856.53
2022-11-12T06:05:54.287Z,100851.28
2022-11-12T06:06:58.113Z,100857.31
2022-11-12T06:08:04.077Z,100859.94
2022-11-12T06:09:08.971Z,100857.31
2022-11-12T06:10:17.523Z,100858.16
2022-11-12T06:11:23.906Z,100854.59
2022-11-12T06:12:28.119Z,100851.91
2022-11-12T06:13:31.857Z,100859.78
2022-11-12T06:14:35.670Z,100851.03
2022-11-12T06:15:39.652Z,100858.06
2022-11-12T06:16:43.203Z,100861.63
2022-11-12T06:17:47.193Z,100860.75
2022-11-12T06:18:50.985Z,100865.19
2022-11-12T06:19:55.778Z,100859.03
2022-11-12T06:21:23.768Z,100866.09
2022-11-12T06:22:27.260Z,100865.19
2022-11-12T06:23:31.072Z,100858.22
2022-11-12T06:24:35.700Z,100872.31
2022-11-12T06:25:40.655Z,100867.03
2022-11-12T06:26:45.782Z,100873.88
2022-11-12T06:27:49.788Z,100866.78
2022-11-12T06:28:58.175Z,100870.28
2022-11-12T06:30:01.878Z,100871.13
2022-11-12T06:31:05.915Z,100876.38
2022-11-12T06:32:09.811Z,100875.38
2022-11-12T06:33:13.511Z,100871.09
2022-11-12T06:34:19.225Z,100881.59
2022-11-12T06:35:23.734Z,100878.03
2022-11-12T06:36:27.788Z,100880.59
2022-11-12T06:37:31.515Z,100881.41
2022-11-12T06:38:39.713Z,100877.78
2022-11-12T06:39:46.871Z,100882.13
2022-11-12T06:41:05.353Z,100876.78
2022-11-12T06:42:26.851Z,100883.75
2022-11-12T06:43:35.540Z,100888.09
2022-11-12T06:44:42.235Z,100877.75
2022-11-12T06:45:50.024Z,100882.06
2022-11-12T06:47:00.054Z,100882.06
2022-11-12T06:48:14.189Z,100883.75
2022-11-12T06:49:36.244Z,100889.75
2022-11-12T06:50:44.710Z,100887.88
2022-11-12T06:52:00.921Z,100888.56
2022-11-12T06:53:07.448Z,100883.28
2022-11-12T06:54:11.628Z,100888.50
2022-11-12T06:55:16.742Z,100879.66
2022-11-12T06:56:21.837Z,100884.06
2022-11-12T06:57:26.649Z,100881.28
2022-11-12T06:58:30.849Z,100882.19
2022-11-12T06:59:34.855Z,100883.19
2022-11-12T07:00:45.272Z,100884.75
2022-11-12T07:01:49.358Z,100889.06
2022-11-12T07:02:54.605Z,100882.78
2022-11-12T07:04:05.155Z,100884.56
2022-11-12T07:05:32.529Z,100886.16
2022-11-12T07:06:45.890Z,100881.66
2022-11-12T07:07:57.436Z,100882.38
2022-11-12T07:09:05.377Z,100884.09
2022-11-12T07:10:25.400Z,100879.75
2022-11-12T07:11:35.700Z,100888.53
2022-11-12T07:12:50.464Z,100881.53
2022-11-12T07:14:01.807Z,100887.53
2022-11-12T07:15:09.120Z,100887.47
2022-11-12T07:16:24.935Z,100889.59
2022-11-12T07:17:40.758Z,100892.97
2022-11-12T07:18:51.202Z,100891.03
2022-11-12T07:19:58.200Z,100895.28
2022-11-12T07:21:23.892Z,100898.59
2022-11-12T07:22:35.101Z,100899.44
2022-11-12T07:23:41.358Z,100897.50
2022-11-12T07:24:54.630Z,100900.88
2022-11-12T07:26:21.955Z,100898.31
2022-11-12T07:27:26.123Z,100897.19
2022-11-12T07:28:31.308Z,100904.84
2022-11-12T07:29:47.703Z,100899.63
2022-11-12T07:31:13.951Z,100900.41
2022-11-12T07:32:26.683Z,100894.22
2022-11-12T07:33:33.132Z,100902.38
2022-11-12T07:34:40.368Z,100903.13
2022-11-12T07:35:43.964Z,100898.53
2022-11-12T07:36:52.918Z,100895.19
2022-11-12T07:38:12.475Z,100893.88
2022-11-12T07:39:21.742Z,100894.47
2022-11-12T07:40:25.836Z,100894.34
2022-11-12T07:41:30.695Z,100895.84
2022-11-12T07:42:45.339Z,100891.16
2022-11-12T07:43:56.230Z,100893.66
2022-11-12T07:45:07.972Z,100896.16
2022-11-12T07:46:24.527Z,100894.22
2022-11-12T07:47:28.489Z,100899.16
2022-11-12T07:48:33.547Z,100900.59
2022-11-12T07:49:37.768Z,100895.19
2022-11-12T07:50:42.292Z,100894.97
2022-11-12T07:51:46.086Z,100895.59
2022-11-12T07:52:54.026Z,100891.13
2022-11-12T07:55:21.912Z,100888.56
2022-11-12T07:56:29.500Z,100883.75
2022-11-12T07:57:43.067Z,100894.09
2022-11-12T07:58:48.874Z,100893.97
2022-11-12T07:59:56.251Z,100890.69
2022-11-12T08:01:32.019Z,100881.81
2022-11-12T08:02:36.100Z,100887.81
2022-11-12T08:03:54.125Z,100878.50
2022-11-12T08:05:08.536Z,100878.94
2022-11-12T08:06:25.042Z,100885.19
2022-11-12T08:07:38.694Z,100888.56
2022-11-12T08:08:45.680Z,100882.78
2022-11-12T08:09:50.261Z,100880.53
2022-11-12T08:10:59.056Z,100883.25
2022-11-12T08:12:02.579Z,100882.25
2022-11-12T08:13:06.446Z,100888.41
2022-11-12T08:14:09.937Z,100889.94
2022-11-12T08:15:13.663Z,100882.97
2022-11-12T08:16:18.180Z,100895.59
2022-11-12T08:17:21.733Z,100886.22
2022-11-12T08:18:27.038Z,100894.25
2022-11-12T08:19:31.051Z,100887.97
2022-11-12T08:20:34.522Z,100895.78
2022-11-12T08:21:39.723Z,100885.66
2022-11-12T08:22:49.605Z,100893.00
2022-11-12T08:23:53.522Z,100885.06
2022-11-12T08:25:00.531Z,100891.09
2022-11-12T08:26:12.804Z,100881.34
2022-11-12T08:27:22.067Z,100883.84
2022-11-12T08:28:27.947Z,100890.66
2022-11-12T08:29:32.950Z,100883.91
2022-11-12T08:30:36.525Z,100892.03
2022-11-12T08:31:40.172Z,100884.66
2022-11-12T08:32:43.757Z,100874.75
2022-11-12T08:33:47.449Z,100880.97
2022-11-12T08:34:51.154Z,100891.72
2022-11-12T08:35:54.684Z,100888.22
2022-11-12T08:36:58.237Z,100886.13
2022-11-12T08:38:05.207Z,100888.56
2022-11-12T08:39:09.139Z,100894.22
2022-11-12T08:40:13.445Z,100893.81
2022-11-12T08:41:17.795Z,100894.81
2022-11-12T08:42:23.896Z,100892.38
2022-11-12T08:43:28.216Z,100892.91
2022-11-12T08:44:31.823Z,100894.69
2022-11-12T08:45:39.235Z,100892.59
2022-11-12T08:46:42.718Z,100880.84
2022-11-12T08:47:46.218Z,100889.03
2022-11-12T08:48:50.013Z,100890.84
2022-11-12T08:49:56.461Z,100885.69
2022-11-12T08:51:18.132Z,100886.38
2022-11-12T08:52:29.578Z,100882.28
2022-11-12T08:53:34.720Z,100885.56
2022-11-12T08:54:51.318Z,100882.00
2022-11-12T08:55:59.023Z,100882.13
2022-11-12T08:57:03.692Z,100889.38
2022-11-12T08:58:13.632Z,100894.16
2022-11-12T08:59:18.477Z,100894.34
2022-11-12T09:00:23.317Z,100895.97
2022-11-12T09:01:27.151Z,100891.41
2022-11-12T09:02:35.346Z,100902.38
2022-11-12T09:03:42.515Z,100903.38
2022-11-12T09:04:46.924Z,100891.56
2022-11-12T09:05:55.051Z,100896.53
2022-11-12T09:07:01.542Z,100900.91
2022-11-12T09:08:15.759Z,100899.00
2022-11-12T09:09:27.999Z,100897.53
2022-11-12T09:10:37.630Z,100900.34
2022-11-12T09:11:48.877Z,100893.78
2022-11-12T09:12:57.292Z,100900.22
2022-11-12T09:15:39.920Z,100901.13
2022-11-12T09:16:45.610Z,100893.25
2022-11-12T09:18:00.570Z,100893.09
2022-11-12T09:19:05.876Z,100891.59
2022-11-12T09:20:19.241Z,100899.84
2022-11-12T09:21:25.315Z,100894.88
2022-11-12T09:22:29.690Z,100894.84
2022-11-12T09:23:39.804Z,100895.34
2022-11-12T09:24:45.482Z,100898.28
2022-11-12T09:25:50.369Z,100901.19
2022-11-12T09:26:55.434Z,100900.97
2022-11-12T09:28:16.767Z,100890.28
2022-11-12T09:29:21.739Z,100895.97
2022-11-12T09:30:26.223Z,100893.13
2022-11-12T09:31:33.117Z,100900.69
2022-11-12T09:32:37.023Z,100900.38
2022-11-12T09:33:40.616Z,100898.31
2022-11-12T09:34:44.356Z,100891.19
2022-11-12T09:35:52.647Z,100895.03
2022-11-12T09:36:58.436Z,100896.84
2022-11-12T09:38:02.767Z,100897.66
2022-11-12T09:39:07.845Z,100898.63
2022-11-12T09:40:20.113Z,100902.66
2022-11-12T09:41:41.958Z,100896.50
2022-11-12T09:42:59.985Z,100888.78
2022-11-12T09:44:18.489Z,100897.97
2022-11-12T09:45:31.712Z,100888.59
2022-11-12T09:47:02.644Z,100887.63
2022-11-12T09:48:16.934Z,100893.31
2022-11-12T09:49:56.900Z,100888.13
2022-11-12T09:51:15.090Z,100894.06
2022-11-12T09:52:30.076Z,100889.19
2022-11-12T09:53:57.160Z,100898.16
2022-11-12T09:55:24.623Z,100889.38
2022-11-12T09:56:34.738Z,100890.78
2022-11-12T09:57:39.585Z,100892.06
2022-11-12T09:58:44.767Z,100887.81
2022-11-12T09:59:49.821Z,100887.22
2022-11-12T10:01:13.577Z,100877.47
2022-11-12T10:02:40.963Z,100880.03
2022-11-12T10:03:48.725Z,100880.72
2022-11-12T10:05:14.188Z,100877.16
2022-11-12T10:06:26.704Z,100874.88
2022-11-12T10:07:58.252Z,100874.09
2022-11-12T10:09:35.663Z,100886.66
2022-11-12T10:10:49.042Z,100882.59
2022-11-12T10:12:39.408Z,100884.25
2022-11-12T10:14:13.583Z,100885.66
2022-11-12T10:16:18.422Z,100889.72
2022-11-12T10:17:57.729Z,100887.69
2022-11-12T10:19:31.236Z,100884.50
2022-11-12T10:20:55.590Z,100881.38
2022-11-12T10:22:12.969Z,100874.50
2022-11-12T10:23:58.629Z,100877.94
2022-11-12T10:25:36.963Z,100876.38
2022-11-12T10:26:48.715Z,100878.53
2022-11-12T10:27:57.624Z,100876.16
2022-11-12T10:29:31.827Z,100879.19
2022-11-12T10:30:39.998Z,100879.00
2022-11-12T10:31:45.375Z,100873.50
2022-11-12T10:32:53.022Z,100876.72
2022-11-12T10:34:19.431Z,100873.41
2022-11-12T10:35:24.456Z,100871.34
2022-11-12T10:36:40.241Z,100864.19
2022-11-12T10:38:01.271Z,100869.34
2022-11-12T10:39:17.250Z,100871.84
2022-11-12T10:40:40.182Z,100867.88
2022-11-12T10:42:29.333Z,100869.06
2022-11-12T10:43:36.936Z,100877.19
2022-11-12T10:44:47.368Z,100868.88
2022-11-12T10:46:29.757Z,100872.31
2022-11-12T10:47:54.088Z,100867.41
2022-11-12T10:49:29.735Z,100860.88
2022-11-12T10:50:46.483Z,100861.72
2022-11-12T10:52:01.355Z,100862.59
2022-11-12T10:53:18.276Z,100860.78
2022-11-12T10:54:40.339Z,100857.00
2022-11-12T10:56:08.620Z,100858.72
2022-11-12T10:57:32.235Z,100854.97
2022-11-12T10:58:45.189Z,100854.97
2022-11-12T11:00:26.528Z,100846.56
2022-11-12T11:01:44.448Z,100854.47
2022-11-12T11:03:00.332Z,100851.59
2022-11-12T11:04:34.122Z,100858.75
2022-11-12T11:05:59.926Z,100855.50
2022-11-12T11:07:27.376Z,100852.75
2022-11-12T11:08:53.422Z,100841.22
2022-11-12T11:10:37.029Z,100847.31
2022-11-12T11:11:57.633Z,100840.59
2022-11-12T11:13:38.743Z,100845.84
2022-11-12T11:14:59.785Z,100838.53
2022-11-12T11:16:25.080Z,100843.88
2022-11-12T11:17:32.346Z,100841.88
2022-11-12T11:19:01.969Z,100841.66
2022-11-12T11:20:36.166Z,100833.50
2022-11-12T11:22:42.115Z,100834.44
2022-11-12T11:24:49.616Z,100824.72
2022-11-12T11:26:26.825Z,100826.34
2022-11-12T11:27:42.628Z,100825.38
2022-11-12T11:29:28.143Z,100822.47
2022-11-12T11:30:52.428Z,100818.09
2022-11-12T11:32:49.730Z,100817.69
2022-11-12T11:34:25.613Z,100818.66
2022-11-12T11:36:57.169Z,100822.66
2022-11-12T11:38:48.590Z,100823.63
2022-11-12T11:40:26.797Z,100816.84
2022-11-12T11:42:44.317Z,100821.16
2022-11-12T11:44:31.579Z,100821.72
2022-11-12T11:46:03.718Z,100815.63
2022-11-12T11:48:00.409Z,100812.66
2022-11-12T11:49:45.066Z,100804.66
2022-11-12T11:51:31.772Z,100809.16
2022-11-12T11:53:16.170Z,100799.41
2022-11-12T11:54:50.588Z,100800.06
2022-11-12T11:56:22.123Z,100800.72
2022-11-12T11:58:02.759Z,100799.88
2022-11-12T12:00:02.502Z,100796.81
2022-11-12T12:01:35.035Z,100793.28
2022-11-12T12:03:23.111Z,100793.97
2022-11-12T12:04:48.566Z,100787.47
2022-11-12T12:06:21.618Z,100796.44
2022-11-12T12:08:17.162Z,100796.66
2022-11-12T12:09:38.580Z,100798.25
2022-11-12T12:11:08.057Z,100792.44
2022-11-12T12:12:22.829Z,100802.00
2022-11-12T12:13:53.083Z,100799.13
2022-11-12T12:15:33.168Z,100799.88
2022-11-12T12:17:19.940Z,100804.38
2022-11-12T12:19:12.770Z,100793.66
2022-11-12T12:21:05.579Z,100793.50
2022-11-12T12:22:32.677Z,100792.53
2022-11-12T12:23:59.296Z,100790.03
2022-11-12T12:25:30.913Z,100793.78
2022-11-12T12:27:11.013Z,100792.53
2022-11-12T12:28:47.156Z,100791.38
2022-11-12T12:30:18.055Z,100797.28
2022-11-12T12:31:38.405Z,100789.94
2022-11-12T12:33:08.894Z,100790.63
2022-11-12T12:34:37.501Z,100794.91
2022-11-12T12:36:34.913Z,100795.22
2022-11-12T12:37:50.003Z,100794.34
2022-11-12T12:39:27.814Z,100791.56
2022-11-12T12:41:14.377Z,100787.09
2022-11-12T12:43:12.882Z,100784.31
2022-11-12T12:44:23.260Z,100790.50
2022-11-12T12:46:29.236Z,100792.16
2022-11-12T12:47:48.237Z,100782.41
2022-11-12T12:49:01.794Z,100786.69
2022-11-12T12:50:26.276Z,100789.56
2022-11-12T12:51:45.385Z,100787.09
2022-11-12T12:53:18.728Z,100791.19
2022-11-12T12:55:10.500Z,100789.00
2022-11-12T12:56:32.666Z,100782.69
2022-11-12T12:57:42.316Z,100784.19
2022-11-12T12:59:04.766Z,100786.44
2022-11-12T13:00:39.845Z,100791.84
2022-11-12T13:02:13.759Z,100786.44
2022-11-12T13:03:50.267Z,100783.56
2022-11-12T13:04:59.281Z,100787.09
2022-11-12T13:06:36.255Z,100788.78
2022-11-12T13:07:50.323Z,100784.63
2022-11-12T13:09:20.813Z,100781.72
2022-11-12T13:10:44.220Z,100786.69
2022-11-12T13:12:15.470Z,100782.50
2022-11-12T13:13:26.353Z,100789.75
2022-11-12T13:14:38.052Z,100793.13
2022-11-12T13:15:55.376Z,100786.50
2022-11-12T13:17:08.456Z,100783.63
2022-11-12T13:18:57.711Z,100783.44
2022-11-12T13:20:19.201Z,100781.94
2022-11-12T13:21:23.403Z,100787.16
2022-11-12T13:22:27.026Z,100786.09
2022-11-12T13:24:09.402Z,100780.16
2022-11-12T13:25:17.113Z,100778.59
2022-11-12T13:26:43.912Z,100768.13
2022-11-12T13:27:48.066Z,100767.88
2022-11-12T13:29:39.873Z,100768.56
2022-11-12T13:30:44.064Z,100771.91
2022-11-12T13:32:34.150Z,100774.81
2022-11-12T13:33:39.075Z,100776.75
2022-11-12T13:34:45.355Z,100775.34
2022-11-12T13:36:41.497Z,100777.19
2022-11-12T13:38:12.644Z,100777.59
2022-11-12T13:39:20.568Z,100775.28
2022-11-12T13:41:07.535Z,100778.03
2022-11-12T13:42:42.087Z,100779.09
2022-11-12T13:43:49.860Z,100778.22
2022-11-12T13:44:57.154Z,100780.91
2022-11-12T13:46:31.846Z,100784.31
2022-11-12T13:47:40.727Z,100783.25
2022-11-12T13:49:25.977Z,100775.78
2022-11-12T13:50:39.316Z,100771.25
2022-11-12T13:51:54.047Z,100778.31
2022-11-12T13:53:01.517Z,100778.19
2022-11-12T13:54:45.108Z,100774.84
2022-11-12T13:55:54.349Z,100777.50
2022-11-12T13:57:30.122Z,100780.59
2022-11-12T13:58:37.024Z,100779.91
2022-11-12T13:59:48.730Z,100776.66
2022-11-12T14:01:11.030Z,100783.19
2022-11-12T14:02:27.477Z,100776.53
2022-11-12T14:03:41.634Z,100784.59
2022-11-12T14:04:46.333Z,100779.22
2022-11-12T14:05:52.295Z,100782.09
2022-11-12T14:07:39.123Z,100780.16
2022-11-12T14:09:35.576Z,100777.13
2022-11-12T14:10:58.821Z,100777.91